Flight Track Log - Related Links

Times and Time Zones

All times are in EDT time to prevent confusion due to time zone crossing. See the EJA951 flight status page for this flight to view local times or setup timezone preferences in your user account.

Time Position Orientation Groundspeed Altitude Reporting Facility
EDT Latitude Longitude Course Direction KTS MPH feet Rate Location/Type
Thu 07:53:35 PM 37.6333 -122.3667 58° Northeast 172 198 1,000  Level Northern Cal TRACON
Thu 07:54:35 PM 37.6667 -122.3000 58° Northeast 229 264 5,200 4,238 Climbing Northern Cal TRACON
Thu 07:55:41 PM 37.7333 -122.2667 22° Northeast 325 374 9,900 2,567 Climbing Northern Cal TRACON
Thu 07:57:49 PM 37.9394 -122.2358 North 364 419 13,500 1,873 Climbing Oakland Center
Thu 07:58:50 PM 38.0317 -122.1944 19° North 356 410 15,800 2,244 Climbing Oakland Center
Thu 07:59:52 PM 38.1458 -122.1439 19° North 365 420 18,100 1,902 Climbing Oakland Center
Thu 08:00:53 PM 38.2431 -122.0961 21° North 375 432 19,700 1,610 Climbing Oakland Center
Thu 08:01:55 PM 38.3500 -122.0636 13° North 400 460 21,400 1,659 Climbing Oakland Center
Thu 08:02:56 PM 38.4606 -122.0714 357° North 400 460 23,100 1,902 Climbing Oakland Center
Thu 08:03:58 PM 38.5744 -122.0792 357° North 409 471 25,300 1,902 Climbing Oakland Center
Thu 08:04:59 PM 38.7025 -122.0872 357° North 412 474 27,000 1,610 Climbing Oakland Center
Thu 08:06:01 PM 38.8231 -122.0964 357° North 425 489 28,600 1,645 Climbing Oakland Center
Thu 08:07:03 PM 38.9483 -122.1050 357° North 440 506 30,400 1,902 Climbing Oakland Center
Thu 08:08:04 PM 39.0747 -122.1133 357° North 450 518 32,500 2,066 Climbing Oakland Center
Thu 08:09:05 PM 39.1986 -122.1203 358° North 446 513 34,600 2,098 Climbing Oakland Center
Thu 08:10:07 PM 39.3236 -122.1278 357° North 446 513 36,800 1,659 Climbing Oakland Center
Thu 08:11:08 PM 39.4492 -122.1361 357° North 449 517 38,000 585 Climbing Oakland Center
Thu 08:12:10 PM 39.5900 -122.1461 357° North 475 547 38,000  Level Oakland Center
Thu 08:13:11 PM 39.7267 -122.1547 357° North 490 564 38,000  Level Oakland Center
Thu 08:14:13 PM 39.8608 -122.1628 357° North 487 560 38,000  Level Oakland Center
Thu 08:15:14 PM 40.0194 -122.1733 357° North 482 555 38,000  Level Oakland Center
Thu 08:16:16 PM 40.1500 -122.1814 357° North 483 556 38,000  Level Oakland Center
Thu 08:17:17 PM 40.2800 -122.1906 357° North 482 555 38,000  Level Oakland Center
Thu 08:18:18 PM 40.4125 -122.2006 357° North 481 554 38,000  Level Oakland Center
Thu 08:19:20 PM 40.5456 -122.2100 357° North 481 554 38,000  Level Oakland Center
Thu 08:20:21 PM 40.7050 -122.2206 357° North 481 554 38,000  Level Oakland Center
Thu 08:21:23 PM 40.8386 -122.2300 357° North 481 554 38,000  Level Oakland Center
Thu 08:22:24 PM 40.9717 -122.2383 357° North 481 554 38,000  Level Oakland Center
Thu 08:23:25 PM 41.1033 -122.2492 356° North 477 549 38,000  Level Oakland Center
Thu 08:24:27 PM 41.2358 -122.2594 357° North 478 550 38,000  Level Oakland Center
Thu 08:25:28 PM 41.3669 -122.2667 358° North 473 544 38,000  Level Oakland Center
Thu 08:26:02 PM 41.4481 -122.2725 357° North 475 547 38,000  Level Seattle Center
Thu 08:27:03 PM 41.5789 -122.2803 357° North 472 543 38,000  Level Seattle Center
Thu 08:28:04 PM 41.7069 -122.2881 357° North 461 531 38,000  Level Seattle Center
Thu 08:29:05 PM 41.8364 -122.2972 357° North 463 533 38,000  Level Seattle Center
Thu 08:30:06 PM 41.9667 -122.3050 357° North 464 534 38,000  Level Seattle Center
Thu 08:31:07 PM 42.0972 -122.3156 357° North 465 535 38,000  Level Seattle Center
Thu 08:32:08 PM 42.2281 -122.3239 357° North 464 534 38,000  Level Seattle Center
Thu 08:33:09 PM 42.3581 -122.3339 357° North 463 533 38,000  Level Seattle Center
Thu 08:34:10 PM 42.4869 -122.3436 357° North 463 533 38,000  Level Seattle Center
Thu 08:35:11 PM 42.6164 -122.3533 357° North 463 533 38,000  Level Seattle Center
Thu 08:36:12 PM 42.7550 -122.3625 357° North 462 532 38,000  Level Seattle Center
Thu 08:37:13 PM 42.8836 -122.3731 357° North 463 533 38,000  Level Seattle Center
Thu 08:38:14 PM 43.0131 -122.3808 357° North 464 534 38,000  Level Seattle Center
Thu 08:39:15 PM 43.1428 -122.3903 357° North 465 535 38,000  Level Seattle Center
Thu 08:40:16 PM 43.2736 -122.3997 357° North 470 541 38,000  Level Seattle Center
Thu 08:41:17 PM 43.4056 -122.4097 357° North 474 545 38,000  Level Seattle Center
Thu 08:42:18 PM 43.5375 -122.4192 357° North 476 548 38,000  Level Seattle Center
Thu 08:43:19 PM 43.6714 -122.4294 357° North 479 551 38,000  Level Seattle Center
Thu 08:44:20 PM 43.8303 -122.4425 357° North 480 552 38,000  Level Seattle Center
Thu 08:45:21 PM 43.9639 -122.4517 357° North 480 552 38,000  Level Seattle Center
Thu 08:46:22 PM 44.0967 -122.4617 357° North 481 554 38,000  Level Seattle Center
Thu 08:47:23 PM 44.2306 -122.4725 357° North 484 557 38,000  Level Seattle Center
Thu 08:48:24 PM 44.3647 -122.4825 357° North 485 558 38,000  Level Seattle Center
Thu 08:49:25 PM 44.4992 -122.4928 357° North 487 560 38,000  Level Seattle Center
Thu 08:50:26 PM 44.6347 -122.5044 356° North 489 563 38,000  Level Seattle Center
Thu 08:51:27 PM 44.7703 -122.5147 357° North 489 563 38,000  Level Seattle Center
Thu 08:52:28 PM 44.9108 -122.5256 357° North 486 559 38,000  Level Seattle Center
Thu 08:53:29 PM 45.0450 -122.5381 356° North 486 559 38,000  Level Seattle Center
Thu 08:54:30 PM 45.1789 -122.5483 357° North 484 557 38,000  Level Seattle Center
Thu 08:55:31 PM 45.3117 -122.5558 358° North 482 555 38,000  Level Seattle Center
Thu 08:56:32 PM 45.4436 -122.5747 354° North 480 552 38,000  Level Seattle Center
Thu 08:57:33 PM 45.6028 -122.6083 352° North 485 558 38,000  Level Seattle Center
Thu 08:58:34 PM 45.7344 -122.6361 352° North 482 555 38,000  Level Seattle Center
Thu 08:59:35 PM 45.8675 -122.6658 351° North 483 556 38,000  Level Seattle Center
Thu 09:00:36 PM 46.0000 -122.6942 352° North 483 556 38,000 -984 Level Seattle Center
Thu 09:01:37 PM 46.1336 -122.7164 353° North 486 559 36,000 -2,213 Descending Seattle Center
Thu 09:02:38 PM 46.2825 -122.7014 North 513 590 33,500 -2,361 Descending Seattle Center
Thu 09:03:39 PM 46.4233 -122.6817 North 512 589 31,200 -2,459 Descending Seattle Center
Thu 09:04:40 PM 46.5633 -122.6658 North 508 585 28,500 -2,902 Descending Seattle Center
Thu 09:05:41 PM 46.6989 -122.6489 North 493 567 25,300 -3,570 Descending Seattle Center
Thu 09:05:59 PM 46.7597 -122.6422 North 472 543 23,800 -3,148 Descending Seattle Center
Thu 09:06:42 PM 46.8231 -122.6342 North 457 526 22,100 -3,000 Descending Seattle Center
Thu 09:07:13 PM 46.8969 -122.6233 North 413 475 20,100 -2,700 Descending Seattle Center
Thu 09:07:42 PM 46.9344 -122.6200 North 416 479 19,400 -2,500 Descending Seattle Center
Thu 09:08:13 PM 47.0067 -122.6094 North 348 400 17,600 -2,951 Descending Seattle Center
Thu 09:08:43 PM 47.0517 -122.6028 North 362 417 16,400 -2,328 Descending Seattle Center
Thu 09:09:20 PM 47.1078 -122.5969 North 333 383 15,000 -2,361 Descending Seattle Center
Thu 09:09:44 PM 47.1431 -122.5914 North 333 383 14,000 -2,754 Descending Seattle Center
Thu 09:10:21 PM 47.1986 -122.5869 North 322 371 12,200 -2,557 Descending Seattle Center
Thu 09:10:45 PM 47.2339 -122.5664 22° Northeast 311 358 11,400 -1,869 Descending Seattle Center
Thu 09:11:22 PM 47.2689 -122.5225 40° Northeast 306 352 10,300 -1,869 Descending Seattle Center
Thu 09:11:46 PM 47.2989 -122.4825 42° Northeast 310 357 9,500 -1,644 Descending Seattle Center
Thu 09:12:35 PM 47.3578 -122.4608 14° North 291 335 8,300 -865 Descending Seattle Center
Thu 09:13:30 PM 47.4250 -122.4633 359° North 249 287 8,000 -247 Descending Seattle Center
Thu 09:13:48 PM 47.4467 -122.4614 North 256 295 8,000 -655 Level Seattle Center
Thu 09:14:25 PM 47.4917 -122.4628 359° North 251 289 7,400 -1,082 Descending Seattle Center
Thu 09:14:49 PM 47.5172 -122.4739 344° North 258 297 6,900 -1,600 Descending Seattle Center
Thu 09:15:25 PM 47.5567 -122.4928 342° North 245 282 5,800 -1,869 Descending Seattle Center
Thu 09:15:50 PM 47.5808 -122.5069 338° Northwest 244 281 5,000 -2,262 Descending Seattle Center
Thu 09:16:26 PM 47.6189 -122.5275 340° North 239 275 3,500 -2,557 Descending Seattle Center
Thu 09:16:51 PM 47.6483 -122.5400 344° North 237 273 2,400 -1,418 Descending Seattle Center
Thu 09:17:21 PM 47.6728 -122.5572 335° Northwest 199 229 2,200 -197 Descending Seattle Center
Thu 09:17:52 PM 47.6975 -122.5758 333° Northwest 196 226 2,200  Level Seattle Center
Thu 09:18:16 PM 47.7167 -122.5725 North 197 227 2,200  Level Seattle Center
Thu 09:18:53 PM 47.7358 -122.5353 53° Northeast 187 215 2,200 98 Level Seattle Center
Thu 09:19:17 PM 47.7417 -122.5128 69° East 177 204 2,300  Climbing Seattle Center
Thu 09:19:54 PM 47.7286 -122.4728 116° Southeast 170 196 2,200 -90 Descending Seattle Center
Thu 09:20:24 PM 47.7128 -122.4594 150° Southeast 136 157 2,200  Level Seattle Center
Thu 09:20:55 PM 47.6978 -122.4472 151° Southeast 124 143 2,200  Level Seattle Center
Thu 09:21:24 PM 47.6847 -122.4356 149° Southeast 111 128 2,200  Level Seattle Center
Thu 09:21:56 PM 47.6686 -122.4222 151° Southeast 114 131 2,200  Level Seattle Center
Thu 09:22:25 PM 47.6564 -122.4117 150° Southeast 116 133 2,200  Level Seattle Center
Thu 09:22:57 PM 47.6408 -122.3983 150° Southeast 115 132 2,200 -98 Level Seattle Center
Thu 09:23:26 PM 47.6281 -122.3878 151° Southeast 115 132 2,100 -393 Descending Seattle Center
Thu 09:23:58 PM 47.6133 -122.3747 149° Southeast 115 132 1,800 -689 Descending Seattle Center
Thu 09:24:27 PM 47.6000 -122.3639 151° Southeast 118 136 1,400 -689 Descending Seattle Center
Thu 09:24:59 PM 47.5839 -122.3492 148° Southeast 121 139 1,100 -590 Descending Seattle Center
Thu 09:25:28 PM 47.5708 -122.3372 148° Southeast 123 142 800 -689 Descending Seattle Center
Thu 09:26:00 PM 47.5539 -122.3236 152° Southeast 124 143 400 -750 Descending Seattle Center

Login

Don't have an account? Register now (free) for customized features, flight alerts, and more!